This is the latest recevied weather packets stored in our database for station/object WMKA. If no packets are shown the sender has not sent any weather packets the latest 10 day(s).
| Time | Temp. | Humidity | Pressure | Rain* | Wind** | Luminosity | Snow |
|---|---|---|---|---|---|---|---|
| 1788135258 | 77° F | 94% | 758.3 mmHg | - | - | - | - |
| 1788131657 | 77° F | 88% | 758.3 mmHg | - | - | - | - |
| 1788128058 | 77° F | 88% | 757.6 mmHg | - | - | - | - |
| 1788124458 | 77° F | 94% | 757.6 mmHg | - | - | - | - |
| 1788120865 | 77° F | 94% | 757.6 mmHg | - | - | - | - |
| 1788117257 | 77° F | 94% | 758.3 mmHg | - | - | - | - |
| 1788113657 | 78° F | 88% | 758.3 mmHg | - | - | - | - |
| 1788110058 | 78° F | 94% | 759.1 mmHg | - | - | - | - |
| 1788106464 | 80° F | 88% | 759.1 mmHg | - | - | - | - |
| 1788102856 | 80° F | 88% | 759.1 mmHg | - | - | - | - |
| 1788099256 | 80° F | 88% | 758.3 mmHg | - | - | - | - |
| 1788095658 | 82° F | 83% | 757.6 mmHg | - | - | - | - |
| 1788092062 | 84° F | 83% | 756.8 mmHg | - | - | - | - |
| 1788088456 | 86° F | 79% | 756.8 mmHg | - | - | - | - |
| 1788084856 | 87° F | 70% | 756.8 mmHg | - | - | - | - |
| 1788081257 | 91° F | 62% | 756.8 mmHg | - | - | - | - |
| 1788077662 | 89° F | 66% | 756.8 mmHg | - | - | - | - |
| 1788074055 | 91° F | 70% | 757.6 mmHg | - | - | - | - |
| 1788070455 | 91° F | 66% | 757.6 mmHg | - | - | - | - |
| 1788066857 | 89° F | 66% | 758.3 mmHg | - | - | - | - |
| 1788063255 | 89° F | 62% | 759.1 mmHg | - | - | - | - |
| 1788059662 | 87° F | 70% | 759.1 mmHg | - | - | - | - |
| 1788056055 | 82° F | 83% | 759.1 mmHg | - | - | - | - |
| 1788052458 | 78° F | 88% | 759.1 mmHg | - | - | - | - |
| 1788048855 | 75° F | 10% | - | - | - | - | - |
* Rain since midnight (hover to see other rain measurements)
** Current wind speed in m/s (hover to see current wind gust speed)